Time;durP1;ratioP1;P1;durP2;ratioP2;P2;SDS_P1;SDS_P2;PMS_P1;PMS_P2;Temp;Humidity;BMP_temperature;BMP_pressure;BME280_temperature;BME280_humidity;BME280_pressure;Samples;Min_cycle;Max_cycle;Signal;HPM_P1;HPM_P2
2023/07/16 00:00:59;;;;;;;9.40;2.90;;;17.10;99.90;;;;;;5044739;28;20201;-67
2023/07/16 00:03:27;;;;;;;5.27;2.67;;;17.10;99.90;;;;;;5066703;28;20282;-66
2023/07/16 00:05:55;;;;;;;5.57;2.80;;;17.10;99.90;;;;;;5065994;28;20211;-66
2023/07/16 00:08:24;;;;;;;5.70;2.70;;;17.10;99.90;;;;;;5066361;28;20196;-66
2023/07/16 00:10:52;;;;;;;3.47;2.70;;;17.00;99.90;;;;;;5053463;28;20195;-66
2023/07/16 00:13:21;;;;;;;8.63;2.80;;;17.00;99.90;;;;;;5065325;28;20196;-66
2023/07/16 00:15:49;;;;;;;7.83;2.83;;;17.00;99.90;;;;;;5058813;28;20356;-67
2023/07/16 00:18:19;;;;;;;5.20;2.73;;;16.90;99.90;;;;;;5063170;28;20199;-66
2023/07/16 00:20:47;;;;;;;7.93;2.77;;;16.90;99.90;;;;;;5069886;28;20207;-66
2023/07/16 00:23:16;;;;;;;7.97;2.47;;;16.80;99.90;;;;;;5072505;28;20198;-66
2023/07/16 00:25:44;;;;;;;5.03;2.93;;;16.80;99.90;;;;;;5060250;28;20208;-66
2023/07/16 00:28:13;;;;;;;6.60;2.90;;;16.70;99.90;;;;;;5060881;28;20218;-66
2023/07/16 00:30:41;;;;;;;7.13;2.90;;;16.70;99.90;;;;;;5053019;28;20517;-66
2023/07/16 00:33:09;;;;;;;7.63;2.80;;;16.70;99.90;;;;;;5053589;28;20189;-66
2023/07/16 00:35:39;;;;;;;11.67;3.43;;;16.60;99.90;;;;;;5065384;28;20191;-66
2023/07/16 00:38:08;;;;;;;8.20;2.60;;;16.60;99.90;;;;;;5058649;28;20192;-66
2023/07/16 00:40:36;;;;;;;6.23;2.77;;;16.70;99.90;;;;;;5057251;28;20191;-66
2023/07/16 00:43:04;;;;;;;10.40;3.23;;;16.60;99.90;;;;;;5063461;28;20196;-66
2023/07/16 00:45:33;;;;;;;8.63;2.80;;;16.70;99.90;;;;;;5071766;28;20623;-66
2023/07/16 00:48:02;;;;;;;9.90;3.03;;;16.70;99.90;;;;;;5062930;28;20249;-66
2023/07/16 00:50:33;;;;;;;6.93;3.07;;;16.70;99.90;;;;;;5073190;28;20187;-66
2023/07/16 00:53:04;;;;;;;9.97;3.13;;;16.70;99.90;;;;;;5064890;28;20563;-66
2023/07/16 00:55:32;;;;;;;12.23;2.70;;;16.70;99.90;;;;;;5063990;28;20196;-66
2023/07/16 00:58:05;;;;;;;7.40;2.70;;;16.70;99.90;;;;;;5039091;28;20195;-66
2023/07/16 01:00:33;;;;;;;8.47;3.47;;;16.70;99.90;;;;;;5057760;28;20199;-66
2023/07/16 01:03:02;;;;;;;7.50;3.20;;;16.80;99.90;;;;;;5065944;28;20227;-66
2023/07/16 01:05:36;;;;;;;5.93;2.93;;;16.80;99.90;;;;;;5056530;28;20204;-66
2023/07/16 01:08:10;;;;;;;9.33;3.13;;;16.80;99.90;;;;;;5058736;28;20225;-66
2023/07/16 01:10:39;;;;;;;9.43;3.10;;;16.80;99.90;;;;;;5059571;28;20202;-66
2023/07/16 01:13:07;;;;;;;6.47;3.07;;;16.80;99.90;;;;;;5057700;28;20200;-66
2023/07/16 01:15:36;;;;;;;7.10;3.00;;;16.80;99.90;;;;;;5055910;28;20185;-66
2023/07/16 01:18:06;;;;;;;6.80;3.23;;;16.90;99.90;;;;;;5056574;28;20187;-66
2023/07/16 01:20:34;;;;;;;3.63;2.67;;;16.80;99.90;;;;;;5071821;28;20253;-66
2023/07/16 01:23:18;;;;;;;6.23;2.43;;;16.80;99.90;;;;;;5055656;28;20199;-66
2023/07/16 01:26:03;;;;;;;4.70;2.77;;;16.80;99.90;;;;;;5052381;28;20196;-68
2023/07/16 01:29:02;;;;;;;5.00;2.90;;;16.70;99.90;;;;;;5042543;28;20259;-66
2023/07/16 01:31:34;;;;;;;6.33;2.93;;;16.70;99.90;;;;;;5042921;28;20547;-66
2023/07/16 01:34:05;;;;;;;6.13;2.60;;;16.70;99.90;;;;;;5062272;28;20192;-66
2023/07/16 01:36:35;;;;;;;6.53;2.73;;;16.60;99.90;;;;;;5056842;28;20204;-66
2023/07/16 01:39:04;;;;;;;6.20;3.03;;;16.60;99.90;;;;;;5056945;28;20195;-67
2023/07/16 01:41:32;;;;;;;8.77;3.03;;;16.50;99.90;;;;;;5046737;28;20197;-66
2023/07/16 01:44:00;;;;;;;6.97;3.23;;;16.50;99.90;;;;;;5064167;28;20194;-65
2023/07/16 01:46:29;;;;;;;7.47;3.00;;;16.50;99.90;;;;;;5052588;28;20201;-66
2023/07/16 01:48:59;;;;;;;5.10;3.40;;;16.50;99.90;;;;;;5058404;28;20233;-66
2023/07/16 01:51:27;;;;;;;4.20;2.90;;;16.60;99.90;;;;;;5063000;28;20541;-66
2023/07/16 01:53:56;;;;;;;7.57;4.00;;;16.60;99.90;;;;;;5067215;28;20213;-66
2023/07/16 01:56:24;;;;;;;10.07;3.83;;;16.60;99.90;;;;;;5052103;28;20307;-66
2023/07/16 01:58:53;;;;;;;6.43;4.03;;;16.60;99.90;;;;;;5049452;28;20513;-66
2023/07/16 02:01:21;;;;;;;5.40;3.67;;;16.70;99.90;;;;;;5055777;28;20644;-66
2023/07/16 02:03:50;;;;;;;9.87;4.07;;;16.70;99.90;;;;;;5065556;28;20719;-66
2023/07/16 02:06:20;;;;;;;4.20;3.80;;;16.70;99.90;;;;;;5060739;28;20194;-66
2023/07/16 02:08:50;;;;;;;7.60;4.10;;;16.70;99.90;;;;;;5066008;28;20264;-66
2023/07/16 02:11:19;;;;;;;8.80;4.00;;;16.60;99.90;;;;;;5065617;28;20199;-66
2023/07/16 02:13:47;;;;;;;11.37;4.40;;;16.60;99.90;;;;;;5056574;28;20219;-66
2023/07/16 02:16:15;;;;;;;5.33;4.30;;;16.60;99.90;;;;;;5068570;28;20191;-66
2023/07/16 02:18:44;;;;;;;6.67;3.70;;;16.50;99.90;;;;;;5076357;28;20186;-66
2023/07/16 02:21:13;;;;;;;5.87;3.70;;;16.50;99.90;;;;;;5069601;28;20187;-66
2023/07/16 02:23:43;;;;;;;4.73;3.50;;;16.50;99.90;;;;;;5064364;28;20193;-66
2023/07/16 02:26:11;;;;;;;7.40;3.77;;;16.40;99.90;;;;;;5056395;28;20193;-66
2023/07/16 02:28:39;;;;;;;7.80;3.80;;;16.40;99.90;;;;;;5062626;28;20206;-67
2023/07/16 02:31:08;;;;;;;5.90;4.07;;;16.40;99.90;;;;;;5056366;28;20186;-66
2023/07/16 02:33:36;;;;;;;6.87;3.90;;;16.30;99.90;;;;;;5067460;28;20186;-66
2023/07/16 02:36:06;;;;;;;5.57;3.60;;;16.30;99.90;;;;;;5066807;28;20209;-66
2023/07/16 02:38:34;;;;;;;8.10;4.10;;;16.20;99.90;;;;;;5055592;28;20190;-66
2023/07/16 02:41:04;;;;;;;6.87;3.97;;;16.20;99.90;;;;;;5062454;28;20195;-66
2023/07/16 02:43:32;;;;;;;8.23;3.60;;;16.20;99.90;;;;;;5061020;28;20210;-66
2023/07/16 02:46:00;;;;;;;8.13;3.80;;;16.20;99.90;;;;;;5055039;28;20221;-66
2023/07/16 02:48:29;;;;;;;5.83;4.10;;;16.20;99.90;;;;;;5044465;28;20726;-66
2023/07/16 02:50:57;;;;;;;6.80;4.50;;;16.20;99.90;;;;;;5061762;28;20198;-66
2023/07/16 02:53:26;;;;;;;12.67;4.97;;;16.20;99.90;;;;;;5041324;28;20248;-66
2023/07/16 02:55:54;;;;;;;7.23;4.40;;;16.20;99.90;;;;;;5054779;28;20846;-66
2023/07/16 02:58:24;;;;;;;7.23;4.40;;;16.20;99.90;;;;;;5062078;28;20210;-66
2023/07/16 03:00:52;;;;;;;7.33;4.77;;;16.20;99.90;;;;;;5059832;28;20201;-67
2023/07/16 03:03:22;;;;;;;7.23;4.77;;;16.20;99.90;;;;;;5069276;28;20602;-66
2023/07/16 03:05:50;;;;;;;7.53;4.47;;;16.20;99.90;;;;;;5060196;28;20356;-66
2023/07/16 03:08:20;;;;;;;10.53;4.60;;;16.20;99.90;;;;;;5064491;28;20651;-67
2023/07/16 03:10:48;;;;;;;11.93;4.43;;;16.20;99.90;;;;;;5074714;28;20213;-66
2023/07/16 03:13:16;;;;;;;10.43;4.90;;;16.10;99.90;;;;;;5040189;28;20198;-66
2023/07/16 03:15:46;;;;;;;12.00;4.70;;;16.10;99.90;;;;;;5055006;28;20191;-66
2023/07/16 03:18:14;;;;;;;10.47;5.43;;;16.10;99.90;;;;;;5070889;28;20209;-66
2023/07/16 03:20:43;;;;;;;10.27;5.20;;;16.20;99.90;;;;;;5066175;28;20247;-66
2023/07/16 03:23:11;;;;;;;6.67;5.23;;;16.20;99.90;;;;;;5062918;28;20251;-66
2023/07/16 03:25:40;;;;;;;5.33;4.53;;;16.20;99.90;;;;;;5066772;28;20286;-66
2023/07/16 03:28:08;;;;;;;10.50;5.00;;;16.20;99.90;;;;;;5062572;28;20210;-66
2023/07/16 03:30:37;;;;;;;10.07;5.20;;;16.20;99.90;;;;;;5062299;28;20544;-66
2023/07/16 03:33:07;;;;;;;5.37;4.73;;;16.20;99.90;;;;;;5068672;28;20193;-66
2023/07/16 03:35:35;;;;;;;9.53;5.17;;;16.20;99.90;;;;;;5055631;28;20224;-66
2023/07/16 03:38:03;;;;;;;11.97;5.37;;;16.20;99.90;;;;;;5068422;28;20680;-66
2023/07/16 03:40:32;;;;;;;11.33;5.20;;;16.20;99.90;;;;;;5060339;28;20704;-65
2023/07/16 03:43:01;;;;;;;13.67;5.50;;;16.10;99.90;;;;;;5062964;28;20199;-66
2023/07/16 03:45:30;;;;;;;15.47;5.53;;;16.10;99.90;;;;;;5058428;28;20194;-66
2023/07/16 03:47:59;;;;;;;10.73;5.27;;;16.10;99.90;;;;;;5056201;28;20226;-66
2023/07/16 03:50:29;;;;;;;7.40;4.97;;;16.10;99.90;;;;;;5055504;28;20287;-66
2023/07/16 03:52:57;;;;;;;11.60;5.80;;;16.10;99.90;;;;;;5065891;28;20209;-66
2023/07/16 03:55:25;;;;;;;10.37;5.87;;;16.10;99.90;;;;;;5066389;28;20217;-66
2023/07/16 03:57:53;;;;;;;9.97;5.40;;;16.10;99.90;;;;;;5056377;28;20190;-66
2023/07/16 04:00:22;;;;;;;12.77;5.80;;;16.10;99.90;;;;;;5064671;28;20561;-66
2023/07/16 04:02:50;;;;;;;10.53;5.70;;;16.10;99.90;;;;;;5053217;28;20211;-66
2023/07/16 04:05:19;;;;;;;13.10;6.10;;;16.20;99.90;;;;;;5054479;28;20191;-66
2023/07/16 04:07:53;;;;;;;15.23;6.03;;;16.20;99.90;;;;;;5060872;28;20199;-65
2023/07/16 04:10:21;;;;;;;9.87;5.63;;;16.20;99.90;;;;;;5057527;28;20206;-66
2023/07/16 04:12:50;;;;;;;7.93;5.83;;;16.20;99.90;;;;;;5040124;28;20649;-66
2023/07/16 04:15:19;;;;;;;8.27;5.60;;;16.20;99.90;;;;;;5048424;28;20292;-66
2023/07/16 04:17:47;;;;;;;9.60;5.50;;;16.20;99.90;;;;;;5054068;28;20547;-66
2023/07/16 04:20:15;;;;;;;14.27;6.00;;;16.20;99.90;;;;;;5063070;28;20197;-66
2023/07/16 04:22:44;;;;;;;12.80;6.13;;;16.20;99.90;;;;;;5054756;28;20195;-66
2023/07/16 04:25:14;;;;;;;10.27;5.67;;;16.30;99.90;;;;;;5057769;28;20190;-66
2023/07/16 04:27:43;;;;;;;14.47;6.37;;;16.30;99.90;;;;;;5053697;28;20672;-66
2023/07/16 04:30:12;;;;;;;10.37;5.70;;;16.30;99.90;;;;;;5053481;28;20220;-66
2023/07/16 04:32:40;;;;;;;12.37;5.87;;;16.20;99.90;;;;;;5043956;28;20660;-65
2023/07/16 04:35:09;;;;;;;11.20;6.40;;;16.30;99.90;;;;;;5053925;28;20194;-66
2023/07/16 04:37:37;;;;;;;16.93;6.40;;;16.30;99.90;;;;;;5068295;28;20197;-66
2023/07/16 04:40:07;;;;;;;10.13;5.97;;;16.30;99.90;;;;;;5056136;28;20188;-66
2023/07/16 04:42:37;;;;;;;15.63;6.17;;;16.30;99.90;;;;;;5058932;28;20191;-65
2023/07/16 04:45:06;;;;;;;14.80;6.33;;;16.20;99.90;;;;;;5064116;28;20186;-65
2023/07/16 04:47:34;;;;;;;11.60;6.33;;;16.40;99.90;;;;;;5071799;28;20551;-66
2023/07/16 04:50:04;;;;;;;14.17;6.27;;;16.40;99.90;;;;;;5061256;28;20256;-66
2023/07/16 04:52:32;;;;;;;17.00;6.37;;;16.40;99.90;;;;;;5053320;28;20193;-65
2023/07/16 04:55:01;;;;;;;17.93;6.47;;;16.50;99.90;;;;;;5053316;28;20195;-66
2023/07/16 04:57:29;;;;;;;19.60;7.40;;;16.50;99.90;;;;;;5062083;28;20260;-66
2023/07/16 04:59:58;;;;;;;13.00;6.10;;;16.60;99.90;;;;;;5058507;28;20210;-65
2023/07/16 05:02:27;;;;;;;13.23;6.33;;;16.70;99.90;;;;;;5066397;28;20197;-65
2023/07/16 05:04:55;;;;;;;14.50;6.67;;;16.70;99.90;;;;;;5036166;28;20656;-65
2023/07/16 05:07:24;;;;;;;13.70;6.90;;;16.80;99.90;;;;;;5045689;28;20285;-66
2023/07/16 05:09:52;;;;;;;18.63;7.07;;;16.80;99.90;;;;;;5057638;28;20425;-65
2023/07/16 05:12:22;;;;;;;13.13;6.67;;;16.90;99.90;;;;;;5063182;28;20209;-66
2023/07/16 05:14:52;;;;;;;14.80;6.67;;;17.00;99.90;;;;;;5062920;28;20581;-65
2023/07/16 05:17:23;;;;;;;16.23;6.50;;;17.00;99.90;;;;;;5057734;28;20245;-66
2023/07/16 05:19:51;;;;;;;10.67;6.40;;;17.00;99.90;;;;;;5070126;28;20662;-65
2023/07/16 05:22:19;;;;;;;12.70;6.40;;;17.10;99.90;;;;;;5072459;28;20244;-65
2023/07/16 05:24:48;;;;;;;12.30;6.80;;;17.10;99.90;;;;;;5061614;28;20256;-65
2023/07/16 05:27:16;;;;;;;12.23;6.93;;;17.20;99.90;;;;;;5066944;28;20287;-65
2023/07/16 05:29:45;;;;;;;12.10;6.77;;;17.20;99.90;;;;;;5052515;28;20224;-67
2023/07/16 05:32:13;;;;;;;13.27;6.87;;;17.30;99.90;;;;;;5067558;28;20231;-66
2023/07/16 05:34:43;;;;;;;12.20;6.80;;;17.40;99.90;;;;;;5057235;28;20194;-65
2023/07/16 05:37:11;;;;;;;11.90;6.20;;;17.40;99.90;;;;;;5059028;28;20192;-66
2023/07/16 05:39:39;;;;;;;14.20;6.40;;;17.40;99.90;;;;;;5051608;28;20200;-65
2023/07/16 05:42:08;;;;;;;20.47;6.77;;;17.50;99.90;;;;;;5071997;28;20260;-65
2023/07/16 05:44:36;;;;;;;10.57;6.43;;;17.50;99.90;;;;;;5065851;28;20728;-66
2023/07/16 05:47:06;;;;;;;14.37;6.50;;;17.60;99.90;;;;;;5052577;28;20216;-65
2023/07/16 05:49:34;;;;;;;14.17;7.07;;;17.70;99.90;;;;;;5052541;28;20580;-65
2023/07/16 05:52:04;;;;;;;15.63;6.30;;;17.80;99.90;;;;;;5062360;28;20204;-65
2023/07/16 05:54:32;;;;;;;15.70;6.70;;;17.90;99.90;;;;;;5061968;28;20197;-65
2023/07/16 05:57:01;;;;;;;12.67;6.33;;;17.90;99.90;;;;;;5056224;28;20284;-65
2023/07/16 05:59:29;;;;;;;10.57;6.40;;;17.90;99.90;;;;;;5051697;28;20191;-64
2023/07/16 06:01:58;;;;;;;12.30;6.50;;;17.90;99.90;;;;;;5056482;28;20197;-65
2023/07/16 06:04:27;;;;;;;17.50;6.90;;;18.00;99.90;;;;;;5052003;28;20627;-64
2023/07/16 06:06:55;;;;;;;13.93;7.27;;;18.10;99.90;;;;;;5053254;28;20208;-64
2023/07/16 06:09:25;;;;;;;15.33;7.07;;;18.20;99.90;;;;;;5051196;28;20231;-65
2023/07/16 06:11:53;;;;;;;17.23;6.67;;;18.30;99.90;;;;;;5060025;28;20193;-65
2023/07/16 06:14:21;;;;;;;16.17;7.07;;;18.60;99.90;;;;;;5054612;28;20195;-65
2023/07/16 06:16:50;;;;;;;14.00;6.90;;;18.60;99.90;;;;;;5051492;28;20651;-64
2023/07/16 06:19:18;;;;;;;11.33;6.80;;;18.60;99.90;;;;;;5056726;28;20192;-64
2023/07/16 06:21:47;;;;;;;14.83;6.70;;;18.60;99.90;;;;;;5065794;28;20242;-64
2023/07/16 06:24:15;;;;;;;14.90;6.93;;;18.90;99.90;;;;;;5051611;28;20185;-64
2023/07/16 06:26:47;;;;;;;16.97;6.90;;;19.10;99.90;;;;;;5052289;28;20199;-64
2023/07/16 06:29:17;;;;;;;14.20;6.47;;;19.20;99.90;;;;;;5059256;28;20185;-65
2023/07/16 06:31:56;;;;;;;15.37;7.07;;;19.10;99.90;;;;;;5060052;28;20295;-65
2023/07/16 06:34:24;;;;;;;15.23;6.93;;;19.10;99.90;;;;;;5033481;28;20229;-65
2023/07/16 06:36:53;;;;;;;15.43;6.97;;;19.10;99.90;;;;;;5049224;28;20686;-64
2023/07/16 06:39:21;;;;;;;13.50;6.93;;;19.40;99.90;;;;;;5054103;28;20556;-65
2023/07/16 06:41:51;;;;;;;10.60;6.47;;;19.50;99.90;;;;;;5071100;28;20274;-66
2023/07/16 06:44:20;;;;;;;12.67;7.03;;;19.50;99.90;;;;;;5057334;28;20673;-64
2023/07/16 06:46:48;;;;;;;11.17;6.40;;;19.60;99.90;;;;;;5070367;28;20230;-64
2023/07/16 06:49:16;;;;;;;9.90;6.30;;;20.00;99.90;;;;;;5070234;28;20188;-65
2023/07/16 06:51:44;;;;;;;10.63;6.07;;;20.00;99.90;;;;;;5054917;28;20185;-65
2023/07/16 06:54:13;;;;;;;13.33;6.47;;;20.20;99.90;;;;;;5057035;28;20193;-65
2023/07/16 06:56:41;;;;;;;12.80;6.43;;;20.60;99.90;;;;;;5070710;28;20222;-65
2023/07/16 06:59:11;;;;;;;9.63;6.23;;;20.70;99.90;;;;;;5066218;28;20580;-65
2023/07/16 07:01:39;;;;;;;12.90;6.30;;;20.90;99.90;;;;;;5054949;28;20745;-65
2023/07/16 07:04:08;;;;;;;14.63;6.07;;;20.90;99.90;;;;;;5054509;28;20221;-65
2023/07/16 07:06:36;;;;;;;9.83;6.30;;;20.70;99.90;;;;;;5057456;28;20197;-65
2023/07/16 07:09:04;;;;;;;12.83;6.20;;;21.10;99.90;;;;;;5061328;28;20224;-66
2023/07/16 07:11:33;;;;;;;8.53;6.20;;;21.30;99.90;;;;;;5074213;28;20550;-65
2023/07/16 07:14:01;;;;;;;14.53;6.50;;;21.00;99.90;;;;;;5059405;28;20673;-65
2023/07/16 07:16:31;;;;;;;14.93;6.87;;;20.90;99.90;;;;;;5054529;28;20185;-65
2023/07/16 07:18:59;;;;;;;10.90;6.10;;;21.20;99.90;;;;;;5066553;28;20228;-65
2023/07/16 07:21:28;;;;;;;13.20;6.10;;;21.30;99.90;;;;;;5062197;28;20665;-64
2023/07/16 07:23:56;;;;;;;10.30;6.20;;;21.40;99.90;;;;;;5059151;28;20189;-64
2023/07/16 07:26:24;;;;;;;15.00;5.97;;;21.30;99.90;;;;;;5063944;28;20202;-65
2023/07/16 07:28:53;;;;;;;10.33;6.13;;;21.10;99.90;;;;;;5067440;28;20184;-64
2023/07/16 07:31:21;;;;;;;10.03;5.37;;;21.40;99.90;;;;;;5065281;28;20208;-64
2023/07/16 07:33:51;;;;;;;10.90;6.27;;;21.50;99.90;;;;;;5043689;28;20800;-65
2023/07/16 07:36:19;;;;;;;10.40;6.10;;;21.60;99.90;;;;;;5059034;28;20510;-65
2023/07/16 07:38:47;;;;;;;10.77;5.53;;;22.00;99.90;;;;;;5055595;28;20190;-65
2023/07/16 07:41:16;;;;;;;11.27;5.67;;;22.30;99.90;;;;;;5052337;28;20524;-65
2023/07/16 07:43:44;;;;;;;11.13;5.47;;;22.60;99.90;;;;;;5055225;28;20195;-65
2023/07/16 07:46:13;;;;;;;11.17;5.70;;;23.00;99.90;;;;;;5048859;28;20205;-65
2023/07/16 07:48:41;;;;;;;10.93;5.70;;;23.40;99.90;;;;;;5058850;28;20224;-64
2023/07/16 07:51:11;;;;;;;12.40;5.53;;;23.70;99.90;;;;;;5059636;28;20219;-63
2023/07/16 07:53:40;;;;;;;13.27;5.00;;;24.10;99.90;;;;;;5049756;28;20516;-64
2023/07/16 07:56:08;;;;;;;10.67;5.83;;;24.00;99.90;;;;;;5057143;28;20724;-65
2023/07/16 07:58:37;;;;;;;9.37;5.23;;;24.30;99.90;;;;;;5060916;28;20200;-65
2023/07/16 08:01:06;;;;;;;7.30;5.23;;;24.40;99.90;;;;;;5048675;28;20201;-65
2023/07/16 08:03:35;;;;;;;8.20;4.83;;;24.40;99.90;;;;;;5050769;28;20189;-65
2023/07/16 08:06:04;;;;;;;9.30;4.90;;;24.40;99.90;;;;;;5053793;28;20192;-65
2023/07/16 08:08:33;;;;;;;9.57;4.97;;;24.10;99.90;;;;;;5069611;28;20559;-64
2023/07/16 08:11:01;;;;;;;8.10;5.03;;;23.70;99.90;;;;;;5060011;28;20234;-65
2023/07/16 08:13:30;;;;;;;10.00;5.43;;;23.20;99.90;;;;;;5066320;28;20509;-64
2023/07/16 08:15:58;;;;;;;10.77;5.20;;;23.30;99.90;;;;;;5054210;28;20668;-65
2023/07/16 08:18:27;;;;;;;11.37;5.40;;;23.10;99.90;;;;;;5063016;28;20246;-65
2023/07/16 08:20:55;;;;;;;9.80;5.30;;;23.20;99.90;;;;;;5053614;28;20192;-65
2023/07/16 08:23:24;;;;;;;5.97;5.20;;;22.40;99.90;;;;;;5055119;28;20557;-65
2023/07/16 08:25:53;;;;;;;10.17;5.50;;;22.40;99.90;;;;;;5076695;28;20285;-65
2023/07/16 08:28:22;;;;;;;11.03;5.30;;;22.70;99.90;;;;;;5068437;28;20277;-65
2023/07/16 08:30:51;;;;;;;10.80;5.73;;;23.00;99.90;;;;;;5056599;28;20239;-65
2023/07/16 08:33:20;;;;;;;9.63;5.73;;;23.30;99.90;;;;;;5062242;28;20200;-65
2023/07/16 08:35:53;;;;;;;8.73;5.70;;;23.00;99.90;;;;;;5047140;28;20240;-65
2023/07/16 08:38:21;;;;;;;13.10;5.30;;;22.50;99.90;;;;;;5054835;28;20656;-65
2023/07/16 08:40:50;;;;;;;6.60;5.13;;;22.30;99.90;;;;;;5063010;28;20198;-65
2023/07/16 08:43:21;;;;;;;9.33;4.80;;;22.70;99.90;;;;;;5064889;28;20187;-65
2023/07/16 08:45:50;;;;;;;6.10;4.70;;;23.50;99.90;;;;;;5057801;28;20319;-65
2023/07/16 08:48:19;;;;;;;8.47;5.37;;;24.40;99.90;;;;;;5056418;28;20718;-65
2023/07/16 08:50:48;;;;;;;10.47;4.83;;;25.00;99.90;;;;;;5059717;28;20209;-65
2023/07/16 08:53:18;;;;;;;7.43;4.57;;;25.30;99.90;;;;;;5064446;28;20213;-65
2023/07/16 08:55:46;;;;;;;5.00;4.43;;;26.00;99.90;;;;;;5060420;28;20247;-65
2023/07/16 08:58:23;;;;;;;6.95;4.68;;;26.70;99.90;;;;;;5055848;28;20220;-65
2023/07/16 09:00:52;;;;;;;8.90;5.05;;;26.20;99.90;;;;;;5052569;28;20189;-65
2023/07/16 09:03:21;;;;;;;6.53;5.10;;;24.90;99.90;;;;;;5053177;28;20620;-65
2023/07/16 09:05:50;;;;;;;7.07;5.00;;;23.90;99.90;;;;;;5050758;28;20189;-65
2023/07/16 09:08:18;;;;;;;8.83;5.13;;;23.40;99.90;;;;;;5060232;28;20283;-65
2023/07/16 09:10:54;;;;;;;8.33;5.30;;;23.30;99.90;;;;;;5063097;28;20219;-65
2023/07/16 09:13:26;;;;;;;12.17;5.20;;;23.00;99.90;;;;;;5064820;28;20237;-65
2023/07/16 09:15:56;;;;;;;8.23;5.23;;;22.40;99.90;;;;;;5054765;28;20192;-65
2023/07/16 09:18:26;;;;;;;7.77;5.07;;;21.70;99.90;;;;;;5060192;28;20239;-65
2023/07/16 09:21:00;;;;;;;14.43;5.47;;;21.30;99.90;;;;;;5044361;28;20197;-65
2023/07/16 09:23:28;;;;;;;9.23;5.17;;;21.30;99.90;;;;;;5053049;28;20181;-65
2023/07/16 09:25:57;;;;;;;9.57;5.27;;;21.40;99.90;;;;;;5064318;28;20206;-65
2023/07/16 09:28:27;;;;;;;12.40;5.47;;;21.70;99.90;;;;;;5071975;28;20202;-65
2023/07/16 09:30:55;;;;;;;9.27;5.33;;;21.90;99.90;;;;;;5072061;28;20192;-65
2023/07/16 09:33:25;;;;;;;12.77;5.10;;;21.90;99.90;;;;;;5067741;28;20197;-65
2023/07/16 09:35:54;;;;;;;10.70;5.40;;;21.80;99.90;;;;;;5061465;28;20275;-65
2023/07/16 09:38:25;;;;;;;11.97;5.20;;;21.80;99.90;;;;;;5056314;28;20284;-64
2023/07/16 09:40:54;;;;;;;10.30;4.70;;;21.70;99.90;;;;;;5072308;28;20685;-65
2023/07/16 09:43:23;;;;;;;8.47;4.90;;;21.80;99.90;;;;;;5063384;28;20197;-65
2023/07/16 09:45:53;;;;;;;8.40;4.93;;;21.70;99.90;;;;;;5065332;28;20191;-64
2023/07/16 09:48:21;;;;;;;7.37;5.10;;;21.40;99.90;;;;;;5036880;28;20253;-65
2023/07/16 09:50:55;;;;;;;9.00;5.10;;;21.20;99.90;;;;;;5062649;28;20227;-64
2023/07/16 09:53:24;;;;;;;7.70;5.17;;;21.10;99.90;;;;;;5054772;28;20197;-65
2023/07/16 09:55:57;;;;;;;6.73;5.13;;;20.70;99.90;;;;;;5064579;28;20269;-65
2023/07/16 09:58:26;;;;;;;8.03;5.10;;;20.70;99.90;;;;;;5062985;28;20258;-64
2023/07/16 10:00:57;;;;;;;8.80;5.33;;;20.80;99.90;;;;;;5055689;28;20264;-65
2023/07/16 10:03:26;;;;;;;8.77;4.60;;;21.10;99.90;;;;;;5058491;28;20192;-65
2023/07/16 10:05:54;;;;;;;12.20;4.60;;;21.60;99.90;;;;;;5064399;28;20223;-65
2023/07/16 10:08:23;;;;;;;9.30;5.00;;;22.50;99.90;;;;;;5052337;28;20194;-65
2023/07/16 10:10:56;;;;;;;9.83;4.77;;;23.10;99.90;;;;;;5070443;28;20285;-65
2023/07/16 10:13:25;;;;;;;7.23;4.80;;;22.90;99.90;;;;;;5056740;28;20527;-65
2023/07/16 10:15:56;;;;;;;7.40;5.10;;;22.20;99.90;;;;;;5054410;28;20220;-65
2023/07/16 10:18:30;;;;;;;6.07;4.03;;;21.40;99.90;;;;;;5071617;28;20250;-66
2023/07/16 10:21:05;;;;;;;11.93;4.33;;;20.50;99.90;;;;;;5058183;28;20192;-65
2023/07/16 10:23:41;;;;;;;4.67;3.60;;;19.70;99.90;;;;;;5051826;28;20192;-64
2023/07/16 10:26:12;;;;;;;6.87;3.60;;;19.30;99.90;;;;;;5059557;28;20664;-64
2023/07/16 10:28:46;;;;;;;4.20;3.40;;;19.30;99.90;;;;;;5055433;28;20627;-66
2023/07/16 10:31:23;;;;;;;3.17;2.87;;;19.50;99.90;;;;;;5068124;28;20247;-65
2023/07/16 10:34:02;;;;;;;5.00;3.27;;;20.10;99.90;;;;;;5065286;28;20188;-65
2023/07/16 10:36:30;;;;;;;3.73;3.13;;;20.70;99.90;;;;;;5068208;28;20294;-65
2023/07/16 10:39:05;;;;;;;5.17;3.43;;;20.80;99.90;;;;;;5055799;28;20197;-65
2023/07/16 10:41:34;;;;;;;5.93;3.93;;;20.60;99.90;;;;;;5055671;28;20685;-65
2023/07/16 10:44:04;;;;;;;5.67;3.57;;;21.00;99.90;;;;;;5064800;28;20192;-65
2023/07/16 10:46:33;;;;;;;4.83;3.60;;;21.60;99.90;;;;;;5062906;28;20224;-65
2023/07/16 10:49:02;;;;;;;3.53;3.23;;;21.90;99.90;;;;;;5057910;28;20314;-65
2023/07/16 10:51:31;;;;;;;3.23;3.03;;;22.70;99.90;;;;;;5065513;28;20187;-65
2023/07/16 10:53:59;;;;;;;2.80;2.60;;;23.40;99.90;;;;;;5057924;28;20528;-66
2023/07/16 10:56:28;;;;;;;2.63;2.43;;;23.70;99.90;;;;;;5056152;28;20189;-65
2023/07/16 10:58:56;;;;;;;2.97;2.70;;;24.20;99.90;;;;;;5073122;28;20302;-65
2023/07/16 11:01:25;;;;;;;3.63;2.80;;;24.90;99.90;;;;;;5060796;28;20220;-65
2023/07/16 11:04:00;;;;;;;3.07;2.87;;;25.10;99.90;;;;;;5068316;28;20512;-65
2023/07/16 11:06:29;;;;;;;3.67;3.13;;;25.20;99.90;;;;;;5071002;28;20196;-65
2023/07/16 11:09:07;;;;;;;5.43;3.70;;;25.70;99.90;;;;;;5062951;28;20536;-65
2023/07/16 11:11:35;;;;;;;6.93;3.38;;;25.90;99.90;;;;;;5043236;28;20194;-65
2023/07/16 11:14:05;;;;;;;5.95;3.65;;;25.90;99.90;;;;;;5051823;28;20810;-65
2023/07/16 11:16:37;;;;;;;6.07;3.50;;;26.40;99.90;;;;;;5069505;28;20534;-66
2023/07/16 11:19:08;;;;;;;3.90;3.50;;;26.60;99.90;;;;;;5068331;28;20217;-65
2023/07/16 11:21:37;;;;;;;7.63;3.77;;;26.10;99.90;;;;;;5062881;28;20312;-65
2023/07/16 11:24:14;;;;;;;5.90;3.90;;;26.00;99.90;;;;;;5065940;28;20193;-65
2023/07/16 11:26:51;;;;;;;4.65;3.35;;;26.00;99.90;;;;;;5065505;28;20188;-65
2023/07/16 11:29:19;;;;;;;5.82;3.45;;;26.00;99.90;;;;;;5045942;28;20192;-65
2023/07/16 11:31:50;;;;;;;7.40;4.00;;;26.20;99.90;;;;;;5064261;28;20551;-65
2023/07/16 11:34:22;;;;;;;7.63;3.70;;;25.90;99.90;;;;;;5062550;28;20193;-65
2023/07/16 11:36:51;;;;;;;5.27;3.50;;;25.70;99.90;;;;;;5059604;28;20733;-65
2023/07/16 11:39:20;;;;;;;3.93;3.13;;;25.90;99.90;;;;;;5062551;28;20236;-65
2023/07/16 11:41:55;;;;;;;7.93;3.40;;;26.00;99.90;;;;;;5064230;28;20203;-66
2023/07/16 11:44:27;;;;;;;3.30;2.90;;;25.50;99.90;;;;;;5046189;28;20279;-65
2023/07/16 11:46:59;;;;;;;3.63;2.90;;;25.00;99.90;;;;;;5062493;28;20666;-66
2023/07/16 11:49:29;;;;;;;6.20;3.27;;;24.60;99.90;;;;;;5067203;28;20173;-66
2023/07/16 11:51:58;;;;;;;4.67;3.00;;;24.20;99.90;;;;;;5056053;28;20239;-66
2023/07/16 11:54:27;;;;;;;3.57;3.27;;;24.20;99.90;;;;;;5063628;28;20198;-66
2023/07/16 11:56:55;;;;;;;7.07;3.50;;;24.50;99.90;;;;;;5051532;28;20212;-66
2023/07/16 11:59:23;;;;;;;6.37;3.40;;;25.00;99.90;;;;;;5051636;28;20220;-66
2023/07/16 12:01:52;;;;;;;5.27;3.10;;;25.20;99.90;;;;;;5061902;28;20188;-66
2023/07/16 12:04:21;;;;;;;3.57;3.30;;;25.40;99.90;;;;;;5058382;28;20227;-65
2023/07/16 12:06:51;;;;;;;4.00;2.90;;;25.10;99.90;;;;;;5064627;28;20185;-65
2023/07/16 12:09:19;;;;;;;3.10;2.80;;;24.90;99.90;;;;;;5054940;28;20254;-65
2023/07/16 12:11:48;;;;;;;3.13;2.90;;;25.10;99.90;;;;;;5072118;28;20625;-66
2023/07/16 12:14:16;;;;;;;8.50;3.30;;;25.60;99.90;;;;;;5059636;28;20213;-66
2023/07/16 12:16:45;;;;;;;7.37;3.20;;;25.30;99.90;;;;;;5066977;28;20188;-65
2023/07/16 12:19:13;;;;;;;5.00;3.40;;;25.00;99.90;;;;;;5063373;28;20251;-65
2023/07/16 12:21:42;;;;;;;4.60;2.93;;;25.30;99.90;;;;;;5063420;28;20192;-65
2023/07/16 12:24:12;;;;;;;5.33;3.03;;;25.50;99.90;;;;;;5059481;28;20226;-65
2023/07/16 12:26:41;;;;;;;6.20;2.80;;;25.10;99.90;;;;;;5061718;28;20276;-65
2023/07/16 12:29:09;;;;;;;4.90;3.13;;;24.60;99.90;;;;;;5064175;28;20191;-65
2023/07/16 12:31:38;;;;;;;5.63;3.10;;;24.50;99.90;;;;;;5052428;28;20207;-65
2023/07/16 12:34:06;;;;;;;5.60;2.63;;;24.40;99.90;;;;;;5067894;28;20215;-65
2023/07/16 12:36:35;;;;;;;4.33;2.80;;;24.20;99.90;;;;;;5050024;28;20248;-65
2023/07/16 12:39:03;;;;;;;4.23;3.10;;;24.20;99.90;;;;;;5062453;28;20210;-65
2023/07/16 12:41:34;;;;;;;5.93;2.70;;;24.30;99.90;;;;;;5060657;28;20285;-66
2023/07/16 12:44:02;;;;;;;3.17;2.87;;;24.40;99.90;;;;;;5067078;28;20197;-64
2023/07/16 12:46:30;;;;;;;4.27;3.17;;;24.40;99.90;;;;;;5067751;28;20293;-65
2023/07/16 12:48:59;;;;;;;5.27;2.83;;;24.50;99.90;;;;;;5061653;28;20225;-64
2023/07/16 12:51:27;;;;;;;4.37;2.90;;;24.50;99.90;;;;;;5061645;28;20203;-64
2023/07/16 12:53:55;;;;;;;7.10;3.07;;;24.40;99.90;;;;;;5063017;28;20223;-65